createdAt,value
2017-11-21T00:00:14.928Z,0
2017-11-21T00:01:14.635Z,0
2017-11-21T00:02:14.624Z,0
2017-11-21T00:03:14.598Z,0
2017-11-21T00:04:15.056Z,0
2017-11-21T00:05:14.571Z,0
2017-11-21T00:06:14.815Z,0
2017-11-21T00:07:14.272Z,0
2017-11-21T00:08:14.780Z,0
2017-11-21T00:09:14.529Z,0
2017-11-21T00:10:14.469Z,0
2017-11-21T00:11:14.458Z,0
2017-11-21T00:12:14.176Z,0
2017-11-21T00:13:14.694Z,0
2017-11-21T00:14:14.134Z,0
2017-11-21T00:15:14.387Z,0
2017-11-21T00:16:14.366Z,0
2017-11-21T00:17:14.894Z,0
2017-11-21T00:18:14.333Z,0
2017-11-21T00:19:14.058Z,0
2017-11-21T00:20:14.299Z,0
2017-11-21T00:21:14.280Z,0
2017-11-21T00:22:14.268Z,0
2017-11-21T00:23:14.259Z,0
2017-11-21T00:24:13.960Z,0
2017-11-21T00:25:14.481Z,0
2017-11-21T00:26:14.196Z,0
2017-11-21T00:27:14.199Z,0
2017-11-21T00:28:14.170Z,0
2017-11-21T00:29:14.423Z,0
2017-11-21T00:30:14.429Z,0
2017-11-21T00:31:13.842Z,0
2017-11-21T00:32:14.087Z,0
2017-11-21T00:33:14.076Z,0
2017-11-21T00:34:14.065Z,0
2017-11-21T00:35:14.044Z,0
2017-11-21T00:36:14.298Z,0
2017-11-21T00:37:14.271Z,0
2017-11-21T00:38:14.305Z,0
2017-11-21T00:39:13.703Z,0
2017-11-21T00:40:14.221Z,0
2017-11-21T00:41:14.211Z,0
2017-11-21T00:42:13.934Z,0
2017-11-21T00:43:13.900Z,0
2017-11-21T00:44:13.353Z,0
2017-11-21T00:45:13.880Z,0
2017-11-21T00:46:13.852Z,0
2017-11-21T00:47:14.104Z,0
2017-11-21T00:48:14.372Z,0
2017-11-21T00:49:13.534Z,0
2017-11-21T00:50:13.785Z,0
2017-11-21T00:51:14.043Z,0
2017-11-21T00:52:13.753Z,0
2017-11-21T00:53:13.472Z,0
2017-11-21T00:54:13.988Z,0
2017-11-21T00:55:13.969Z,0
2017-11-21T00:56:13.681Z,0
2017-11-21T00:57:13.932Z,0
2017-11-21T00:58:13.379Z,0
2017-11-21T00:59:13.638Z,0
2017-11-21T01:00:13.948Z,0
2017-11-21T01:01:13.872Z,0
2017-11-21T01:02:13.870Z,0
2017-11-21T01:03:13.555Z,0
2017-11-21T01:04:13.276Z,0
2017-11-21T01:05:13.532Z,0
2017-11-21T01:06:13.241Z,0
2017-11-21T01:07:13.224Z,0
2017-11-21T01:08:13.482Z,0
2017-11-21T01:09:13.459Z,0
2017-11-21T01:10:13.456Z,0
2017-11-21T01:11:13.713Z,0
2017-11-21T01:12:13.433Z,0
2017-11-21T01:13:13.662Z,0
2017-11-21T01:14:12.835Z,0
2017-11-21T01:15:13.629Z,0
2017-11-21T01:16:13.621Z,0
2017-11-21T01:17:12.780Z,0
2017-11-21T01:18:13.592Z,0
2017-11-21T01:19:13.286Z,0
2017-11-21T01:20:13.322Z,0
2017-11-21T01:21:13.264Z,0
2017-11-21T01:22:12.964Z,0
2017-11-21T01:23:13.215Z,0
2017-11-21T01:24:13.480Z,0
2017-11-21T01:25:13.187Z,0
2017-11-21T01:26:13.440Z,0
2017-11-21T01:27:13.160Z,0
2017-11-21T01:28:13.410Z,0
2017-11-21T01:29:13.389Z,0
2017-11-21T01:30:12.831Z,0
2017-11-21T01:31:13.352Z,0
2017-11-21T01:32:13.069Z,0
2017-11-21T01:33:13.316Z,0
2017-11-21T01:34:12.499Z,0
2017-11-21T01:35:13.021Z,0
2017-11-21T01:36:13.550Z,0
2017-11-21T01:37:13.255Z,0
2017-11-21T01:38:13.507Z,0
2017-11-21T01:39:13.213Z,0
2017-11-21T01:40:13.202Z,0
2017-11-21T01:41:12.914Z,0
2017-11-21T01:42:12.914Z,0
2017-11-21T01:43:12.610Z,0
2017-11-21T01:44:12.874Z,0
2017-11-21T01:45:13.121Z,0
2017-11-21T01:46:12.603Z,0
2017-11-21T01:47:12.826Z,0
2017-11-21T01:48:12.544Z,0
2017-11-21T01:49:12.519Z,0
2017-11-21T01:50:12.514Z,0
2017-11-21T01:51:12.485Z,0
2017-11-21T01:52:12.746Z,0
2017-11-21T01:53:12.989Z,0
2017-11-21T01:54:12.967Z,0
2017-11-21T01:55:12.956Z,0
2017-11-21T01:56:12.679Z,0
2017-11-21T01:57:13.222Z,0
2017-11-21T01:58:12.928Z,0
2017-11-21T01:59:13.158Z,0
2017-11-21T02:00:12.608Z,0
2017-11-21T02:01:13.121Z,0
2017-11-21T02:02:12.296Z,0
2017-11-21T02:03:12.844Z,0
2017-11-21T02:04:12.460Z,0
2017-11-21T02:05:12.525Z,0
2017-11-21T02:06:12.780Z,0
2017-11-21T02:07:12.478Z,0
2017-11-21T02:08:12.464Z,0
2017-11-21T02:09:12.449Z,0
2017-11-21T02:10:12.746Z,0
2017-11-21T02:11:12.690Z,0
2017-11-21T02:12:12.404Z,0
2017-11-21T02:13:12.654Z,0
2017-11-21T02:14:12.629Z,0
2017-11-21T02:15:12.908Z,0
2017-11-21T02:16:12.601Z,0
2017-11-21T02:17:12.590Z,0
2017-11-21T02:18:12.832Z,0
2017-11-21T02:19:12.562Z,0
2017-11-21T02:20:12.264Z,0
2017-11-21T02:21:12.016Z,0
2017-11-21T02:22:11.951Z,0
2017-11-21T02:23:12.476Z,0
2017-11-21T02:24:12.197Z,0
2017-11-21T02:25:12.453Z,0
2017-11-21T02:26:11.894Z,0
2017-11-21T02:27:12.422Z,0
2017-11-21T02:28:12.391Z,0
2017-11-21T02:29:12.381Z,0
2017-11-21T02:30:11.838Z,0
2017-11-21T02:31:11.807Z,0
2017-11-21T02:32:12.077Z,0
2017-11-21T02:33:12.304Z,0
2017-11-21T02:34:12.568Z,0
2017-11-21T02:35:12.572Z,0
2017-11-21T02:36:12.551Z,0
2017-11-21T02:37:11.970Z,0
2017-11-21T02:38:11.980Z,0
2017-11-21T02:39:12.222Z,0
2017-11-21T02:40:11.930Z,0
2017-11-21T02:41:11.936Z,0
2017-11-21T02:42:11.900Z,0
2017-11-21T02:43:11.605Z,0
2017-11-21T02:44:12.143Z,0
2017-11-21T02:45:13.129Z,0
2017-11-21T02:46:11.829Z,0
2017-11-21T02:47:12.073Z,0
2017-11-21T02:48:12.343Z,0
2017-11-21T02:49:11.783Z,0
2017-11-21T02:50:11.758Z,0
2017-11-21T02:51:11.682Z,0
2017-11-21T02:52:12.032Z,0
2017-11-21T02:53:11.720Z,0
2017-11-21T02:54:11.691Z,0
2017-11-21T02:55:11.418Z,0
2017-11-21T02:56:11.646Z,0
2017-11-21T02:57:12.174Z,0
2017-11-21T02:58:11.640Z,0
2017-11-21T02:59:11.877Z,0
2017-11-21T03:00:11.609Z,0
2017-11-21T03:01:11.834Z,0
2017-11-21T03:02:11.818Z,0
2017-11-21T03:03:11.799Z,0
2017-11-21T03:04:11.530Z,0
2017-11-21T03:05:12.049Z,0
2017-11-21T03:06:11.220Z,0
2017-11-21T03:07:11.466Z,0
2017-11-21T03:08:11.725Z,0
2017-11-21T03:09:11.445Z,0
2017-11-21T03:10:11.430Z,0
2017-11-21T03:11:11.671Z,0
2017-11-21T03:12:11.390Z,0
2017-11-21T03:13:11.644Z,0
2017-11-21T03:14:11.625Z,0
2017-11-21T03:15:11.895Z,0
2017-11-21T03:16:11.061Z,0
2017-11-21T03:17:11.841Z,0
2017-11-21T03:18:11.291Z,0
2017-11-21T03:19:11.537Z,0
2017-11-21T03:20:11.521Z,0
2017-11-21T03:21:10.967Z,0
2017-11-21T03:22:10.943Z,0
2017-11-21T03:23:11.477Z,0
2017-11-21T03:24:11.200Z,0
2017-11-21T03:25:11.429Z,0
2017-11-21T03:26:11.443Z,0
2017-11-21T03:27:11.137Z,0
2017-11-21T03:28:11.166Z,0
2017-11-21T03:29:11.372Z,0
2017-11-21T03:30:11.099Z,0
2017-11-21T03:31:11.083Z,0
2017-11-21T03:32:11.327Z,0
2017-11-21T03:33:11.303Z,0
2017-11-21T03:34:11.286Z,0
2017-11-21T03:35:10.996Z,0
2017-11-21T03:36:10.710Z,0
2017-11-21T03:37:11.235Z,0
2017-11-21T03:38:10.950Z,0
2017-11-21T03:39:10.404Z,0
2017-11-21T03:40:11.460Z,0
2017-11-21T03:41:10.630Z,0
2017-11-21T03:42:10.622Z,0
2017-11-21T03:43:10.601Z,0
2017-11-21T03:44:10.580Z,0
2017-11-21T03:45:10.299Z,0
2017-11-21T03:46:10.820Z,0
2017-11-21T03:47:11.067Z,0
2017-11-21T03:48:10.791Z,0
2017-11-21T03:49:11.043Z,0
2017-11-21T03:50:10.474Z,0
2017-11-21T03:51:11.279Z,0
2017-11-21T03:52:11.034Z,0
2017-11-21T03:53:10.693Z,0
2017-11-21T03:54:10.677Z,0
2017-11-21T03:55:10.397Z,0
2017-11-21T03:56:11.197Z,0
2017-11-21T03:57:11.182Z,0
2017-11-21T03:58:10.883Z,0
2017-11-21T03:59:10.869Z,0
2017-11-21T04:00:10.855Z,0
2017-11-21T04:01:11.109Z,0
2017-11-21T04:02:10.285Z,0
2017-11-21T04:03:11.085Z,0
2017-11-21T04:04:10.998Z,0
2017-11-21T04:05:10.493Z,0
2017-11-21T04:06:11.036Z,0
2017-11-21T04:07:10.745Z,0
2017-11-21T04:08:10.194Z,0
2017-11-21T04:09:10.711Z,0
2017-11-21T04:10:10.154Z,0
2017-11-21T04:11:10.406Z,0
2017-11-21T04:12:10.385Z,0
2017-11-21T04:13:10.367Z,0
2017-11-21T04:14:10.079Z,0
2017-11-21T04:15:10.351Z,0
2017-11-21T04:16:10.614Z,0
2017-11-21T04:17:10.576Z,0
2017-11-21T04:18:10.014Z,0
2017-11-21T04:19:10.800Z,0
2017-11-21T04:20:10.517Z,0
2017-11-21T04:21:10.532Z,0
2017-11-21T04:22:09.945Z,0
2017-11-21T04:23:10.741Z,0
2017-11-21T04:24:10.189Z,0
2017-11-21T04:25:09.628Z,0
2017-11-21T04:26:10.160Z,0
2017-11-21T04:27:10.179Z,0
2017-11-21T04:28:10.657Z,0
2017-11-21T04:29:10.124Z,0
2017-11-21T04:30:10.375Z,0
2017-11-21T04:31:09.844Z,0
2017-11-21T04:32:09.780Z,0
2017-11-21T04:33:09.771Z,0
2017-11-21T04:34:10.328Z,0
2017-11-21T04:35:10.033Z,0
2017-11-21T04:36:10.258Z,0
2017-11-21T04:37:10.024Z,0
2017-11-21T04:38:09.416Z,0
2017-11-21T04:39:09.396Z,0
2017-11-21T04:40:09.919Z,0
2017-11-21T04:41:09.647Z,0
2017-11-21T04:42:09.880Z,0
2017-11-21T04:43:10.156Z,0
2017-11-21T04:44:10.128Z,0
2017-11-21T04:45:09.835Z,0
2017-11-21T04:46:10.093Z,0
2017-11-21T04:47:10.372Z,0
2017-11-21T04:48:09.781Z,0
2017-11-21T04:49:10.084Z,0
2017-11-21T04:50:09.495Z,0
2017-11-21T04:51:09.468Z,0
2017-11-21T04:52:09.728Z,0
2017-11-21T04:53:09.969Z,0
2017-11-21T04:54:09.690Z,0
2017-11-21T04:55:09.948Z,0
2017-11-21T04:56:09.921Z,0
2017-11-21T04:57:09.923Z,0
2017-11-21T04:58:09.927Z,0
2017-11-21T04:59:09.881Z,0
2017-11-21T05:00:09.319Z,0
2017-11-21T05:01:10.119Z,0
2017-11-21T05:02:09.827Z,0
2017-11-21T05:03:09.866Z,0
2017-11-21T05:04:09.522Z,0
2017-11-21T05:05:09.776Z,0
2017-11-21T05:06:10.037Z,0
2017-11-21T05:07:09.743Z,0
2017-11-21T05:08:09.470Z,0
2017-11-21T05:09:09.735Z,0
2017-11-21T05:10:09.156Z,0
2017-11-21T05:11:09.401Z,0
2017-11-21T05:12:09.121Z,0
2017-11-21T05:13:09.101Z,0
2017-11-21T05:14:09.347Z,0
2017-11-21T05:15:09.623Z,0
2017-11-21T05:16:09.328Z,0
2017-11-21T05:17:09.579Z,0
2017-11-21T05:18:09.027Z,0
2017-11-21T05:19:09.545Z,0
2017-11-21T05:20:09.820Z,0
2017-11-21T05:21:08.972Z,0
2017-11-21T05:22:08.948Z,0
2017-11-21T05:23:09.752Z,0
2017-11-21T05:24:09.729Z,0
2017-11-21T05:25:09.469Z,0
2017-11-21T05:26:08.900Z,0
2017-11-21T05:27:09.154Z,0
2017-11-21T05:28:09.409Z,0
2017-11-21T05:29:09.382Z,0
2017-11-21T05:30:09.370Z,0
2017-11-21T05:31:08.808Z,0
2017-11-21T05:32:09.070Z,0
2017-11-21T05:33:09.312Z,0
2017-11-21T05:34:08.762Z,0
2017-11-21T05:35:09.050Z,0
2017-11-21T05:36:08.459Z,0
2017-11-21T05:37:08.708Z,0
2017-11-21T05:38:09.248Z,0
2017-11-21T05:39:08.955Z,0
2017-11-21T05:40:08.936Z,0
2017-11-21T05:41:09.182Z,0
2017-11-21T05:42:08.895Z,0
2017-11-21T05:43:09.159Z,0
2017-11-21T05:44:08.594Z,0
2017-11-21T05:45:09.128Z,0
2017-11-21T05:46:09.386Z,0
2017-11-21T05:47:09.091Z,0
2017-11-21T05:48:08.536Z,0
2017-11-21T05:49:09.322Z,0
2017-11-21T05:50:08.770Z,0
2017-11-21T05:51:08.481Z,0
2017-11-21T05:52:08.745Z,0
2017-11-21T05:53:08.996Z,0
2017-11-21T05:54:08.423Z,0
2017-11-21T05:55:08.687Z,0
2017-11-21T05:56:08.937Z,0
2017-11-21T05:57:08.650Z,0
2017-11-21T05:58:08.641Z,0
2017-11-21T05:59:08.622Z,0
2017-11-21T06:00:08.867Z,0
2017-11-21T06:01:08.865Z,0
2017-11-21T06:02:08.570Z,0
2017-11-21T06:03:08.554Z,0
2017-11-21T06:04:09.019Z,0
2017-11-21T06:05:08.802Z,0
2017-11-21T06:06:08.232Z,0
2017-11-21T06:07:08.756Z,0
2017-11-21T06:08:08.741Z,0
2017-11-21T06:09:08.454Z,0
2017-11-21T06:10:07.896Z,0
2017-11-21T06:11:07.878Z,0
2017-11-21T06:12:08.413Z,0
2017-11-21T06:13:08.686Z,0
2017-11-21T06:14:08.367Z,0
2017-11-21T06:15:08.087Z,0
2017-11-21T06:16:08.608Z,0
2017-11-21T06:17:08.612Z,0
2017-11-21T06:18:08.568Z,0
2017-11-21T06:19:07.755Z,0
2017-11-21T06:20:08.292Z,0
2017-11-21T06:21:08.261Z,0
2017-11-21T06:22:08.235Z,0
2017-11-21T06:23:08.505Z,0
2017-11-21T06:24:08.486Z,0
2017-11-21T06:25:08.195Z,0
2017-11-21T06:26:08.169Z,0
2017-11-21T06:27:08.149Z,0
2017-11-21T06:28:07.878Z,0
2017-11-21T06:29:08.130Z,0
2017-11-21T06:30:08.395Z,0
2017-11-21T06:31:08.092Z,0
2017-11-21T06:32:08.340Z,0
2017-11-21T06:33:08.066Z,0
2017-11-21T06:34:08.051Z,0
2017-11-21T06:35:08.022Z,0
2017-11-21T06:36:08.010Z,0
2017-11-21T06:37:08.263Z,0
2017-11-21T06:38:08.248Z,0
2017-11-21T06:39:08.334Z,0
2017-11-21T06:40:08.222Z,0
2017-11-21T06:41:07.682Z,0
2017-11-21T06:42:07.639Z,0
2017-11-21T06:43:07.899Z,0
2017-11-21T06:44:07.921Z,0
2017-11-21T06:45:08.136Z,0
2017-11-21T06:46:07.842Z,0
2017-11-21T06:47:08.103Z,0
2017-11-21T06:48:07.813Z,0
2017-11-21T06:49:07.811Z,0
2017-11-21T06:50:08.058Z,0
2017-11-21T06:51:07.496Z,0
2017-11-21T06:52:07.477Z,0
2017-11-21T06:53:07.996Z,0
2017-11-21T06:54:08.250Z,0
2017-11-21T06:55:07.439Z,0
2017-11-21T06:56:07.686Z,0
2017-11-21T06:57:07.942Z,0
2017-11-21T06:58:07.380Z,0
2017-11-21T06:59:07.633Z,0
2017-11-21T07:00:07.889Z,0
2017-11-21T07:01:07.610Z,0
2017-11-21T07:02:08.114Z,0
2017-11-21T07:03:07.572Z,0
2017-11-21T07:04:07.560Z,0
2017-11-21T07:05:07.809Z,0
2017-11-21T07:06:07.531Z,0
2017-11-21T07:07:07.783Z,0
2017-11-21T07:08:07.483Z,0
2017-11-21T07:09:07.468Z,0
2017-11-21T07:10:07.189Z,0
2017-11-21T07:11:07.211Z,0
2017-11-21T07:12:07.414Z,0
2017-11-21T07:13:07.402Z,0
2017-11-21T07:14:07.661Z,0
2017-11-21T07:15:07.377Z,0
2017-11-21T07:16:07.092Z,0
2017-11-21T07:17:07.613Z,0
2017-11-21T07:18:07.612Z,0
2017-11-21T07:19:07.032Z,0
2017-11-21T07:20:07.285Z,0
2017-11-21T07:21:07.001Z,5
2017-11-21T07:22:07.256Z,5
2017-11-21T07:23:07.783Z,5
2017-11-21T07:24:07.498Z,0
2017-11-21T07:25:07.476Z,5
2017-11-21T07:26:07.767Z,5
2017-11-21T07:27:07.171Z,5
2017-11-21T07:28:06.883Z,5
2017-11-21T07:29:07.425Z,5
2017-11-21T07:30:07.670Z,0
2017-11-21T07:31:07.388Z,0
2017-11-21T07:32:07.086Z,0
2017-11-21T07:33:07.618Z,0
2017-11-21T07:34:07.072Z,5
2017-11-21T07:35:07.318Z,5
2017-11-21T07:36:07.286Z,5
2017-11-21T07:37:06.739Z,5
2017-11-21T07:38:07.259Z,5
2017-11-21T07:39:06.979Z,5
2017-11-21T07:40:07.231Z,5
2017-11-21T07:41:06.950Z,5
2017-11-21T07:42:07.210Z,10
2017-11-21T07:43:06.915Z,10
2017-11-21T07:44:07.166Z,10
2017-11-21T07:45:07.159Z,10
2017-11-21T07:46:06.593Z,5
2017-11-21T07:47:07.387Z,5
2017-11-21T07:48:07.364Z,5
2017-11-21T07:49:06.542Z,5
2017-11-21T07:50:06.794Z,5
2017-11-21T07:51:06.768Z,10
2017-11-21T07:52:06.755Z,10
2017-11-21T07:53:07.025Z,15
2017-11-21T07:54:06.723Z,15
2017-11-21T07:55:07.046Z,15
2017-11-21T07:56:06.700Z,10
2017-11-21T07:57:06.419Z,10
2017-11-21T07:58:06.674Z,10
2017-11-21T07:59:06.656Z,10
2017-11-21T08:00:06.950Z,10
2017-11-21T08:01:06.633Z,10
2017-11-21T08:02:06.386Z,10
2017-11-21T08:03:06.584Z,10
2017-11-21T08:04:06.912Z,10
2017-11-21T08:05:06.618Z,10
2017-11-21T08:06:06.256Z,10
2017-11-21T08:07:06.249Z,5
2017-11-21T08:08:06.499Z,5
2017-11-21T08:09:06.215Z,5
2017-11-21T08:10:06.738Z,5
2017-11-21T08:11:06.445Z,5
2017-11-21T08:12:05.896Z,10
2017-11-21T08:13:06.158Z,10
2017-11-21T08:14:06.687Z,10
2017-11-21T08:15:06.115Z,15
2017-11-21T08:16:06.646Z,15
2017-11-21T08:17:06.348Z,20
2017-11-21T08:18:06.403Z,25
2017-11-21T08:19:06.323Z,20
2017-11-21T08:20:06.579Z,25
2017-11-21T08:21:06.296Z,30
2017-11-21T08:22:06.274Z,30
2017-11-21T08:23:06.529Z,25
2017-11-21T08:24:06.518Z,30
2017-11-21T08:25:06.216Z,30
2017-11-21T08:26:06.473Z,30
2017-11-21T08:27:06.202Z,20
2017-11-21T08:28:06.436Z,20
2017-11-21T08:29:06.691Z,15
2017-11-21T08:30:06.135Z,20
2017-11-21T08:31:05.857Z,20
2017-11-21T08:32:06.384Z,25
2017-11-21T08:33:05.820Z,35
2017-11-21T08:34:06.074Z,45
2017-11-21T08:35:06.355Z,55
2017-11-21T08:36:06.034Z,65
2017-11-21T08:37:06.296Z,50
2017-11-21T08:38:06.275Z,40
2017-11-21T08:39:05.719Z,35
2017-11-21T08:40:06.279Z,25
2017-11-21T08:41:05.968Z,25
2017-11-21T08:42:05.957Z,25
2017-11-21T08:43:05.932Z,25
2017-11-21T08:44:06.487Z,25
2017-11-21T08:45:06.161Z,25
2017-11-21T08:46:05.878Z,25
2017-11-21T08:47:06.145Z,30
2017-11-21T08:48:06.117Z,25
2017-11-21T08:49:05.826Z,30
2017-11-21T08:50:05.812Z,40
2017-11-21T08:51:05.522Z,45
2017-11-21T08:52:05.806Z,45
2017-11-21T08:53:06.037Z,40
2017-11-21T08:54:06.307Z,50
2017-11-21T08:55:06.043Z,50
2017-11-21T08:56:06.254Z,50
2017-11-21T08:57:05.161Z,50
2017-11-21T08:58:06.244Z,50
2017-11-21T08:59:05.405Z,50
2017-11-21T09:00:05.642Z,55
2017-11-21T09:01:05.631Z,55
2017-11-21T09:02:05.076Z,50
2017-11-21T09:03:06.146Z,50
2017-11-21T09:04:05.602Z,45
2017-11-21T09:05:05.838Z,45
2017-11-21T09:06:05.829Z,40
2017-11-21T09:07:05.811Z,30
2017-11-21T09:08:05.522Z,40
2017-11-21T09:09:06.043Z,35
2017-11-21T09:10:05.223Z,30
2017-11-21T09:11:05.213Z,30
2017-11-21T09:12:05.728Z,35
2017-11-21T09:13:05.732Z,35
2017-11-21T09:14:05.689Z,30
2017-11-21T09:15:05.682Z,30
2017-11-21T09:16:05.655Z,30
2017-11-21T09:17:05.101Z,35
2017-11-21T09:18:05.361Z,35
2017-11-21T09:19:05.883Z,40
2017-11-21T09:20:04.779Z,40
2017-11-21T09:21:05.606Z,35
2017-11-21T09:22:05.580Z,40
2017-11-21T09:23:05.812Z,40
2017-11-21T09:24:05.564Z,45
2017-11-21T09:25:04.988Z,40
2017-11-21T09:26:05.237Z,40
2017-11-21T09:27:05.222Z,45
2017-11-21T09:28:05.193Z,45
2017-11-21T09:29:04.910Z,50
2017-11-21T09:30:05.167Z,55
2017-11-21T09:31:05.703Z,50
2017-11-21T09:32:05.399Z,55
2017-11-21T09:33:05.416Z,55
2017-11-21T09:34:04.831Z,55
2017-11-21T09:35:04.807Z,50
2017-11-21T09:36:04.815Z,50
2017-11-21T09:37:05.330Z,50
2017-11-21T09:38:05.575Z,55
2017-11-21T09:39:05.040Z,55
2017-11-21T09:40:04.730Z,55
2017-11-21T09:41:04.980Z,55
2017-11-21T09:42:04.980Z,55
2017-11-21T09:43:04.966Z,40
2017-11-21T09:44:05.469Z,35
2017-11-21T09:45:05.208Z,35
2017-11-21T09:46:04.902Z,35
2017-11-21T09:47:04.888Z,35
2017-11-21T09:48:04.330Z,40
2017-11-21T09:49:05.120Z,40
2017-11-21T09:50:05.390Z,40
2017-11-21T09:51:04.556Z,35
2017-11-21T09:52:04.552Z,35
2017-11-21T09:53:05.344Z,35
2017-11-21T09:54:04.778Z,30
2017-11-21T09:55:05.308Z,25
2017-11-21T09:56:05.024Z,25
2017-11-21T09:57:04.730Z,35
2017-11-21T09:58:05.243Z,40
2017-11-21T09:59:04.432Z,40
2017-11-21T10:00:04.943Z,40
2017-11-21T10:01:04.670Z,40
2017-11-21T10:02:05.182Z,40
2017-11-21T10:03:04.090Z,35
2017-11-21T10:04:05.148Z,35
2017-11-21T10:05:04.811Z,35
2017-11-21T10:06:04.864Z,40
2017-11-21T10:07:04.837Z,45
2017-11-21T10:08:04.282Z,40
2017-11-21T10:09:03.996Z,50
2017-11-21T10:10:04.793Z,45
2017-11-21T10:11:04.501Z,45
2017-11-21T10:12:04.220Z,55
2017-11-21T10:13:04.472Z,55
2017-11-21T10:14:04.181Z,55
2017-11-21T10:15:04.995Z,50
2017-11-21T10:16:04.961Z,45
2017-11-21T10:17:04.713Z,50
2017-11-21T10:18:04.704Z,50
2017-11-21T10:19:04.640Z,50
2017-11-21T10:20:04.622Z,45
2017-11-21T10:21:04.878Z,45
2017-11-21T10:22:04.328Z,45
2017-11-21T10:23:04.310Z,40
2017-11-21T10:24:04.560Z,40
2017-11-21T10:25:04.851Z,40
2017-11-21T10:26:04.255Z,45
2017-11-21T10:27:04.246Z,45
2017-11-21T10:28:04.220Z,50
2017-11-21T10:29:04.480Z,40
2017-11-21T10:30:04.738Z,35
2017-11-21T10:31:03.907Z,35
2017-11-21T10:32:04.432Z,35
2017-11-21T10:33:04.154Z,35
2017-11-21T10:34:04.414Z,35
2017-11-21T10:35:04.118Z,35
2017-11-21T10:36:04.393Z,35
2017-11-21T10:37:04.096Z,30
2017-11-21T10:38:04.344Z,30
2017-11-21T10:39:04.340Z,25
2017-11-21T10:40:04.034Z,25
2017-11-21T10:41:04.015Z,25
2017-11-21T10:42:04.000Z,30
2017-11-21T10:43:04.258Z,30
2017-11-21T10:44:03.973Z,30
2017-11-21T10:45:03.960Z,25
2017-11-21T10:46:04.204Z,30
2017-11-21T10:47:04.194Z,35
2017-11-21T10:48:03.911Z,35
2017-11-21T10:49:03.620Z,40
2017-11-21T10:50:03.883Z,55
2017-11-21T10:51:04.124Z,50
2017-11-21T10:52:03.841Z,50
2017-11-21T10:53:03.833Z,50
2017-11-21T10:54:04.072Z,55
2017-11-21T10:55:04.064Z,45
2017-11-21T10:56:04.048Z,50
2017-11-21T10:57:03.786Z,45
2017-11-21T10:58:03.746Z,45
2017-11-21T10:59:03.756Z,40
2017-11-21T11:00:03.715Z,45
2017-11-21T11:01:03.705Z,45
2017-11-21T11:02:03.681Z,45
2017-11-21T11:03:03.941Z,40
2017-11-21T11:04:03.378Z,45
2017-11-21T11:05:03.414Z,40
2017-11-21T11:06:03.344Z,40
2017-11-21T11:07:03.880Z,40
2017-11-21T11:08:03.591Z,45
2017-11-21T11:09:03.308Z,40
2017-11-21T11:10:04.098Z,40
2017-11-21T11:11:03.808Z,40
2017-11-21T11:12:03.798Z,40
2017-11-21T11:13:03.505Z,40
2017-11-21T11:14:03.764Z,40
2017-11-21T11:15:03.470Z,40
2017-11-21T11:16:03.455Z,35
2017-11-21T11:17:03.437Z,35
2017-11-21T11:18:03.423Z,40
2017-11-21T11:19:03.150Z,40
2017-11-21T11:20:03.400Z,35
2017-11-21T11:21:03.925Z,35
2017-11-21T11:22:03.361Z,40
2017-11-21T11:23:03.617Z,40
2017-11-21T11:24:03.602Z,30
2017-11-21T11:25:02.770Z,35
2017-11-21T11:26:03.303Z,30
2017-11-21T11:27:03.813Z,30
2017-11-21T11:28:02.996Z,30
2017-11-21T11:29:03.524Z,30
2017-11-21T11:30:03.498Z,30
2017-11-21T11:31:03.501Z,25
2017-11-21T11:32:03.192Z,30
2017-11-21T11:33:03.187Z,30
2017-11-21T11:34:02.896Z,35
2017-11-21T11:35:03.142Z,35
2017-11-21T11:36:03.408Z,35
2017-11-21T11:37:02.848Z,30
2017-11-21T11:38:02.826Z,30
2017-11-21T11:39:03.354Z,30
2017-11-21T11:40:03.333Z,35
2017-11-21T11:41:02.781Z,35
2017-11-21T11:42:02.763Z,40
2017-11-21T11:43:02.746Z,40
2017-11-21T11:44:03.003Z,35
2017-11-21T11:45:03.282Z,35
2017-11-21T11:46:03.517Z,35
2017-11-21T11:47:03.223Z,30
2017-11-21T11:48:02.937Z,30
2017-11-21T11:49:02.915Z,40
2017-11-21T11:50:02.912Z,50
2017-11-21T11:51:02.898Z,45
2017-11-21T11:52:03.144Z,45
2017-11-21T11:53:02.587Z,45
2017-11-21T11:54:02.846Z,40
2017-11-21T11:55:02.819Z,35
2017-11-21T11:56:03.075Z,35
2017-11-21T11:57:02.799Z,35
2017-11-21T11:58:03.309Z,45
2017-11-21T11:59:02.490Z,35
2017-11-21T12:00:02.469Z,35
2017-11-21T12:01:03.391Z,45
2017-11-21T12:02:02.447Z,40
2017-11-21T12:03:02.702Z,45
2017-11-21T12:04:02.677Z,45
2017-11-21T12:05:02.860Z,35
2017-11-21T12:06:02.646Z,40
2017-11-21T12:07:02.350Z,35
2017-11-21T12:08:02.065Z,50
2017-11-21T12:09:02.852Z,40
2017-11-21T12:10:02.569Z,45
2017-11-21T12:11:02.834Z,45
2017-11-21T12:12:02.817Z,50
2017-11-21T12:13:02.519Z,40
2017-11-21T12:14:02.508Z,40
2017-11-21T12:15:02.799Z,35
2017-11-21T12:16:03.015Z,40
2017-11-21T12:17:02.458Z,35
2017-11-21T12:18:02.975Z,40
2017-11-21T12:19:02.468Z,45
2017-11-21T12:20:02.410Z,45
2017-11-21T12:21:02.416Z,45
2017-11-21T12:22:02.104Z,60
2017-11-21T12:23:02.366Z,50
2017-11-21T12:24:02.349Z,45
2017-11-21T12:25:02.344Z,50
2017-11-21T12:26:02.054Z,50
2017-11-21T12:27:02.297Z,55
2017-11-21T12:28:02.596Z,55
2017-11-21T12:29:01.994Z,55
2017-11-21T12:30:02.814Z,55
2017-11-21T12:31:02.231Z,55
2017-11-21T12:32:02.215Z,60
2017-11-21T12:33:02.202Z,50
2017-11-21T12:34:02.455Z,50
2017-11-21T12:35:02.163Z,50
2017-11-21T12:36:01.881Z,45
2017-11-21T12:37:02.140Z,45
2017-11-21T12:38:02.132Z,45
2017-11-21T12:39:02.366Z,35
2017-11-21T12:40:02.359Z,35
2017-11-21T12:41:01.529Z,40
2017-11-21T12:42:02.326Z,60
2017-11-21T12:43:01.763Z,50
2017-11-21T12:44:02.016Z,45
2017-11-21T12:45:02.550Z,40
2017-11-21T12:46:01.993Z,45
2017-11-21T12:47:01.977Z,40
2017-11-21T12:48:01.970Z,45
2017-11-21T12:49:01.941Z,55
2017-11-21T12:50:02.195Z,50
2017-11-21T12:51:01.902Z,55
2017-11-21T12:52:01.887Z,50
2017-11-21T12:53:02.138Z,45
2017-11-21T12:54:01.862Z,50
2017-11-21T12:55:02.108Z,55
2017-11-21T12:56:01.577Z,55
2017-11-21T12:57:01.803Z,65
2017-11-21T12:58:02.322Z,55
2017-11-21T12:59:01.776Z,60
2017-11-21T13:00:01.754Z,60
2017-11-21T13:01:01.468Z,65
2017-11-21T13:02:01.463Z,75
2017-11-21T13:03:01.979Z,95
2017-11-21T13:04:01.688Z,95
2017-11-21T13:05:01.675Z,80
2017-11-21T13:06:01.941Z,55
2017-11-21T13:07:01.638Z,75
2017-11-21T13:08:01.363Z,70
2017-11-21T13:09:01.886Z,55
2017-11-21T13:10:01.321Z,60
2017-11-21T13:11:01.572Z,55
2017-11-21T13:12:02.105Z,55
2017-11-21T13:13:01.539Z,55
2017-11-21T13:14:01.813Z,45
2017-11-21T13:15:01.510Z,40
2017-11-21T13:16:01.497Z,45
2017-11-21T13:17:01.488Z,35
2017-11-21T13:18:01.461Z,25
2017-11-21T13:19:01.719Z,30
2017-11-21T13:20:01.699Z,35
2017-11-21T13:21:01.414Z,35
2017-11-21T13:22:01.394Z,60
2017-11-21T13:23:01.380Z,45
2017-11-21T13:24:01.632Z,50
2017-11-21T13:25:01.347Z,35
2017-11-21T13:26:01.331Z,30
2017-11-21T13:27:01.082Z,35
2017-11-21T13:28:01.033Z,25
2017-11-21T13:29:01.016Z,30
2017-11-21T13:30:01.540Z,25
2017-11-21T13:31:01.794Z,30
2017-11-21T13:32:00.972Z,25
2017-11-21T13:33:00.680Z,20
2017-11-21T13:34:01.204Z,20
2017-11-21T13:35:00.908Z,20
2017-11-21T13:36:01.169Z,25
2017-11-21T13:37:01.429Z,20
2017-11-21T13:38:01.152Z,20
2017-11-21T13:39:01.119Z,20
2017-11-21T13:40:01.100Z,25
2017-11-21T13:41:00.817Z,20
2017-11-21T13:42:01.066Z,25
2017-11-21T13:43:01.605Z,20
2017-11-21T13:44:01.059Z,20
2017-11-21T13:45:01.299Z,15
2017-11-21T13:46:01.026Z,15
2017-11-21T13:47:00.990Z,15
2017-11-21T13:48:01.520Z,15
2017-11-21T13:49:01.224Z,10
2017-11-21T13:50:01.504Z,15
2017-11-21T13:51:00.657Z,10
2017-11-21T13:52:01.468Z,10
2017-11-21T13:53:00.887Z,10
2017-11-21T13:54:01.148Z,15
2017-11-21T13:55:00.865Z,15
2017-11-21T13:56:01.105Z,10
2017-11-21T13:57:01.102Z,10
2017-11-21T13:58:00.811Z,10
2017-11-21T13:59:01.058Z,15
2017-11-21T14:00:00.513Z,15
2017-11-21T14:01:00.756Z,15
2017-11-21T14:02:01.285Z,15
2017-11-21T14:03:01.020Z,15
2017-11-21T14:04:01.254Z,15
2017-11-21T14:05:00.624Z,20
2017-11-21T14:06:00.961Z,15
2017-11-21T14:07:00.121Z,10
2017-11-21T14:08:01.176Z,10
2017-11-21T14:09:00.895Z,10
2017-11-21T14:10:00.623Z,10
2017-11-21T14:11:00.456Z,10
2017-11-21T14:12:00.587Z,10
2017-11-21T14:13:00.024Z,10
2017-11-21T14:14:00.011Z,10
2017-11-21T14:15:00.844Z,10
2017-11-21T14:16:00.569Z,10
2017-11-21T14:17:00.493Z,10
2017-11-21T14:18:00.213Z,10
2017-11-21T14:19:00.728Z,10
2017-11-21T14:20:00.708Z,10
2017-11-21T14:21:00.705Z,10
2017-11-21T14:21:59.873Z,10
2017-11-21T14:23:00.940Z,10
2017-11-21T14:24:00.399Z,10
2017-11-21T14:25:00.354Z,10
2017-11-21T14:26:00.342Z,10
2017-11-21T14:27:00.599Z,10
2017-11-21T14:28:00.322Z,15
2017-11-21T14:29:00.568Z,15
2017-11-21T14:30:00.560Z,10
2017-11-21T14:31:00.580Z,10
2017-11-21T14:32:00.508Z,10